createdAt,value
2023-09-11T00:01:10.207Z,71.37
2023-09-11T00:03:33.116Z,71.30
2023-09-11T00:06:07.236Z,71.56
2023-09-11T00:08:43.617Z,71.67
2023-09-11T00:11:55.754Z,71.65
2023-09-11T00:14:25.366Z,71.78
2023-09-11T00:20:12.674Z,72.04
2023-09-11T00:22:35.376Z,72.03
2023-09-11T00:24:58.074Z,72.11
2023-09-11T00:27:20.750Z,72.02
2023-09-11T00:29:43.577Z,72.24
2023-09-11T00:32:06.472Z,72.36
2023-09-11T00:34:31.093Z,72.41
2023-09-11T00:36:53.900Z,72.43
2023-09-11T00:39:16.578Z,72.64
2023-09-11T00:41:39.415Z,72.54
2023-09-11T00:44:02.267Z,72.43
2023-09-11T00:46:25.361Z,72.48
2023-09-11T00:48:53.396Z,72.77
2023-09-11T00:51:16.484Z,72.92
2023-09-11T00:53:39.442Z,73.19
2023-09-11T00:56:02.421Z,73.27
2023-09-11T00:58:26.407Z,73.37
2023-09-11T01:00:49.751Z,73.34
2023-09-11T01:03:16.307Z,73.13
2023-09-11T01:05:39.921Z,73.10
2023-09-11T01:08:03.060Z,73.16
2023-09-11T01:10:26.007Z,72.89
2023-09-11T01:12:48.902Z,73.10
2023-09-11T01:15:12.144Z,72.86
2023-09-11T01:17:53.710Z,73.09
2023-09-11T01:20:30.480Z,73.08
2023-09-11T01:23:13.787Z,73.09
2023-09-11T01:25:39.602Z,73.36
2023-09-11T01:28:33.930Z,73.66
2023-09-11T01:30:59.718Z,73.97
2023-09-11T01:33:22.427Z,74.17
2023-09-11T01:35:45.314Z,74.41
2023-09-11T01:38:09.027Z,74.58
2023-09-11T01:40:35.796Z,74.49
2023-09-11T01:43:01.245Z,74.28
2023-09-11T01:45:24.893Z,74.50
2023-09-11T01:48:09.985Z,75.24
2023-09-11T01:50:34.373Z,75.79
2023-09-11T01:52:57.796Z,75.69
2023-09-11T01:55:21.627Z,76.11
2023-09-11T01:57:44.573Z,76.14
2023-09-11T02:00:08.410Z,75.67
2023-09-11T02:02:39.275Z,76.00
2023-09-11T02:05:02.782Z,75.85
2023-09-11T02:07:26.217Z,75.79
2023-09-11T02:09:48.997Z,76.00
2023-09-11T02:12:14.564Z,76.26
2023-09-11T02:14:37.523Z,76.40
2023-09-11T02:17:04.388Z,76.52
2023-09-11T02:19:27.097Z,76.91
2023-09-11T02:21:49.622Z,76.68
2023-09-11T02:24:12.458Z,77.01
2023-09-11T02:26:35.162Z,76.99
2023-09-11T02:29:00.931Z,77.25
2023-09-11T02:31:23.682Z,77.52
2023-09-11T02:33:46.474Z,78.00
2023-09-11T02:36:10.440Z,78.30
2023-09-11T02:38:33.413Z,78.82
2023-09-11T02:41:08.380Z,78.82
2023-09-11T02:43:32.476Z,78.84
2023-09-11T02:45:55.158Z,78.91
2023-09-11T02:48:18.418Z,78.96
2023-09-11T02:50:41.638Z,78.83
2023-09-11T02:53:10.471Z,79.08
2023-09-11T02:55:33.137Z,79.33
2023-09-11T02:57:55.827Z,79.41
2023-09-11T03:00:19.154Z,79.38
2023-09-11T03:02:42.248Z,79.48
2023-09-11T03:05:05.136Z,79.46
2023-09-11T03:07:27.938Z,79.46
2023-09-11T03:09:50.785Z,79.66
2023-09-11T03:12:13.625Z,80.25
2023-09-11T03:14:36.349Z,80.79
2023-09-11T03:16:59.162Z,81.28
2023-09-11T03:19:21.774Z,81.48
2023-09-11T03:21:44.825Z,81.69
2023-09-11T03:24:08.092Z,81.45
2023-09-11T03:26:31.051Z,81.42
2023-09-11T03:28:55.179Z,80.82
2023-09-11T03:31:22.802Z,79.80
2023-09-11T03:33:45.813Z,78.48
2023-09-11T03:36:08.774Z,77.45
2023-09-11T03:38:32.417Z,77.22
2023-09-11T03:40:55.165Z,77.47
2023-09-11T03:43:17.998Z,77.76
2023-09-11T03:45:40.707Z,79.43
2023-09-11T03:48:03.491Z,80.62
2023-09-11T03:50:26.480Z,81.23
2023-09-11T03:52:49.192Z,81.81
2023-09-11T03:55:12.189Z,82.31
2023-09-11T03:57:35.240Z,82.82
2023-09-11T03:59:58.038Z,83.02
2023-09-11T04:02:20.793Z,83.13
2023-09-11T04:04:43.685Z,83.36
2023-09-11T04:07:06.764Z,83.30
2023-09-11T04:09:32.354Z,83.28
2023-09-11T04:11:55.325Z,82.79
2023-09-11T04:14:18.100Z,82.89
2023-09-11T04:16:41.780Z,82.59
2023-09-11T04:19:07.284Z,82.03
2023-09-11T04:21:31.546Z,81.28
2023-09-11T04:23:54.248Z,79.96
2023-09-11T04:26:18.129Z,80.07
2023-09-11T04:28:41.146Z,79.70
2023-09-11T04:31:45.411Z,79.23
2023-09-11T04:34:09.200Z,78.49
2023-09-11T04:36:31.898Z,79.61
2023-09-11T04:38:55.007Z,80.99
2023-09-11T04:41:17.765Z,80.96
2023-09-11T04:43:42.203Z,81.03
2023-09-11T04:46:05.021Z,80.95
2023-09-11T04:48:28.123Z,81.22
2023-09-11T04:50:51.118Z,80.44
2023-09-11T04:53:13.939Z,78.51
2023-09-11T04:55:36.580Z,77.59
2023-09-11T04:57:59.480Z,77.11
2023-09-11T05:00:22.322Z,76.84
2023-09-11T05:02:48.326Z,77.11
2023-09-11T05:05:11.212Z,77.42
2023-09-11T05:07:34.154Z,77.24
2023-09-11T05:09:57.190Z,77.76
2023-09-11T05:12:20.450Z,78.14
2023-09-11T05:14:45.639Z,77.15
2023-09-11T05:17:08.887Z,75.86
2023-09-11T05:19:31.528Z,74.35
2023-09-11T05:21:54.508Z,73.60
2023-09-11T05:24:17.152Z,72.85
2023-09-11T05:26:40.032Z,72.66
2023-09-11T05:29:02.838Z,71.84
2023-09-11T05:31:25.622Z,71.93
2023-09-11T05:33:48.289Z,72.11
2023-09-11T05:36:11.237Z,72.41
2023-09-11T05:38:33.950Z,72.75
2023-09-11T05:40:56.889Z,72.11
2023-09-11T05:43:19.696Z,71.41
2023-09-11T05:45:43.155Z,71.65
2023-09-11T05:48:06.838Z,71.71
2023-09-11T05:50:29.853Z,71.38
2023-09-11T05:52:52.535Z,71.25
2023-09-11T05:55:15.363Z,70.43
2023-09-11T05:57:38.126Z,70.11
2023-09-11T06:00:01.135Z,70.12
2023-09-11T06:02:24.382Z,69.84
2023-09-11T06:04:47.156Z,68.69
2023-09-11T06:07:10.591Z,68.82
2023-09-11T06:09:33.713Z,69.38
2023-09-11T06:11:56.635Z,69.71
2023-09-11T06:14:19.482Z,70.46
2023-09-11T06:16:42.311Z,70.64
2023-09-11T06:19:05.307Z,70.69
2023-09-11T06:21:28.669Z,70.64
2023-09-11T06:23:51.630Z,69.77
2023-09-11T06:26:14.446Z,69.95
2023-09-11T06:28:37.257Z,70.05
2023-09-11T06:31:00.868Z,69.94
2023-09-11T06:33:23.831Z,69.67
2023-09-11T06:35:46.713Z,69.64
2023-09-11T06:38:09.826Z,69.39
2023-09-11T06:40:32.467Z,68.99
2023-09-11T06:42:55.430Z,68.09
2023-09-11T06:45:18.422Z,69.11
2023-09-11T06:47:41.313Z,68.55
2023-09-11T06:50:04.623Z,68.05
2023-09-11T06:52:27.636Z,67.53
2023-09-11T06:54:50.579Z,66.14
2023-09-11T06:57:13.617Z,65.75
2023-09-11T06:59:36.446Z,65.64
2023-09-11T07:01:59.562Z,65.47
2023-09-11T07:04:22.365Z,65.72
2023-09-11T07:06:45.380Z,66.27
2023-09-11T07:09:09.073Z,66.52
2023-09-11T07:11:32.327Z,66.46
2023-09-11T07:13:56.497Z,66.84
2023-09-11T07:16:19.449Z,66.72
2023-09-11T07:18:44.789Z,66.79
2023-09-11T07:21:08.265Z,66.26
2023-09-11T07:23:31.136Z,66.07
2023-09-11T07:25:54.317Z,65.48
2023-09-11T07:28:17.213Z,64.98
2023-09-11T07:30:40.027Z,64.96
2023-09-11T07:33:03.738Z,65.04
2023-09-11T07:35:26.452Z,64.15
2023-09-11T07:37:49.814Z,64.89
2023-09-11T07:40:12.803Z,64.41
2023-09-11T07:42:35.545Z,61.75
2023-09-11T07:44:58.435Z,60.44
2023-09-11T07:47:21.337Z,60.37
2023-09-11T07:49:46.300Z,60.78
2023-09-11T07:52:09.110Z,60.92
2023-09-11T07:54:34.073Z,61.25
2023-09-11T07:56:56.866Z,61.63
2023-09-11T07:59:20.264Z,61.86
2023-09-11T08:01:43.209Z,60.94
2023-09-11T08:04:06.803Z,61.89
2023-09-11T08:06:29.662Z,61.82
2023-09-11T08:08:52.566Z,61.14
2023-09-11T08:11:21.136Z,62.15
2023-09-11T08:13:47.850Z,61.87
2023-09-11T08:16:11.715Z,60.95
2023-09-11T08:18:35.689Z,60.09
2023-09-11T08:20:58.818Z,60.56
2023-09-11T08:23:22.866Z,60.21
2023-09-11T08:25:45.538Z,59.90
2023-09-11T08:28:08.932Z,60.00
2023-09-11T08:30:31.645Z,60.15
2023-09-11T08:32:54.458Z,58.99
2023-09-11T08:35:17.361Z,59.23
2023-09-11T08:37:40.152Z,56.70
2023-09-11T08:40:02.955Z,57.31
2023-09-11T08:42:27.115Z,57.15
2023-09-11T08:44:51.285Z,57.22
2023-09-11T08:47:16.763Z,56.55
2023-09-11T08:49:52.322Z,56.81
2023-09-11T08:52:16.423Z,56.43
2023-09-11T08:54:45.157Z,56.48
2023-09-11T08:57:08.602Z,54.15
2023-09-11T08:59:33.238Z,55.10
2023-09-11T09:01:57.497Z,54.26
2023-09-11T09:04:21.230Z,54.53
2023-09-11T09:06:46.928Z,54.39
2023-09-11T09:09:09.732Z,53.61
2023-09-11T09:11:33.068Z,53.04
2023-09-11T09:13:56.471Z,54.13
2023-09-11T09:16:19.351Z,52.29
2023-09-11T09:18:52.526Z,52.43
2023-09-11T09:21:15.460Z,52.51
2023-09-11T09:23:38.544Z,51.69
2023-09-11T09:26:06.375Z,51.01
2023-09-11T09:28:31.321Z,50.44
2023-09-11T09:30:56.948Z,50.40
2023-09-11T09:33:20.765Z,48.17
2023-09-11T09:35:45.256Z,48.77
2023-09-11T09:38:08.644Z,49.10
2023-09-11T09:40:37.009Z,47.49
2023-09-11T09:43:00.759Z,47.68
2023-09-11T09:45:40.249Z,47.77
2023-09-11T09:48:15.751Z,47.82
2023-09-11T09:50:53.877Z,48.96
2023-09-11T09:53:33.656Z,48.03
2023-09-11T09:55:59.226Z,47.02
2023-09-11T09:58:25.904Z,47.31
2023-09-11T10:00:50.564Z,47.56
2023-09-11T10:03:13.463Z,47.23
2023-09-11T10:05:36.408Z,47.84
2023-09-11T10:08:01.983Z,46.57
2023-09-11T10:10:31.888Z,46.31
2023-09-11T10:13:11.453Z,45.12
2023-09-11T10:15:36.569Z,44.23
2023-09-11T10:17:59.925Z,45.43
2023-09-11T10:20:23.970Z,44.94
2023-09-11T10:22:46.701Z,44.54
2023-09-11T10:25:09.726Z,44.19
2023-09-11T10:27:33.399Z,43.97
2023-09-11T10:30:04.356Z,44.07
2023-09-11T10:32:42.889Z,44.28
2023-09-11T10:35:07.021Z,45.00
2023-09-11T10:37:31.329Z,42.56
2023-09-11T10:39:55.737Z,42.70
2023-09-11T10:42:18.555Z,41.98
2023-09-11T10:44:41.766Z,41.14
2023-09-11T10:47:05.696Z,41.70
2023-09-11T10:49:29.368Z,42.18
2023-09-11T10:51:52.220Z,40.08
2023-09-11T10:54:23.163Z,40.52
2023-09-11T10:56:49.572Z,41.31
2023-09-11T10:59:12.857Z,40.89
2023-09-11T11:01:37.205Z,40.69
2023-09-11T11:04:07.040Z,39.88
2023-09-11T11:06:30.944Z,40.46
2023-09-11T11:08:54.756Z,39.12
2023-09-11T11:11:23.866Z,40.36
2023-09-11T11:14:16.149Z,40.86
2023-09-11T11:16:39.753Z,41.83
2023-09-11T11:19:02.540Z,40.78
2023-09-11T11:21:37.962Z,41.01
2023-09-11T11:24:01.957Z,41.79
2023-09-11T11:26:28.888Z,41.96
2023-09-11T11:28:51.916Z,39.93
2023-09-11T11:31:18.755Z,38.45
2023-09-11T11:33:45.373Z,38.48
2023-09-11T11:36:11.023Z,39.89
2023-09-11T11:38:34.538Z,38.51
2023-09-11T11:40:57.583Z,38.57
2023-09-11T11:43:20.445Z,38.91
2023-09-11T11:45:48.949Z,39.36
2023-09-11T11:48:15.648Z,39.08
2023-09-11T11:50:46.669Z,39.75
2023-09-11T11:53:14.707Z,39.10
2023-09-11T11:55:38.471Z,38.76
2023-09-11T11:58:05.647Z,39.95
2023-09-11T12:00:28.671Z,38.58
2023-09-11T12:02:51.969Z,38.96
2023-09-11T12:05:16.332Z,37.92
2023-09-11T12:07:39.759Z,38.70
2023-09-11T12:10:04.793Z,39.55
2023-09-11T12:12:28.731Z,40.28
2023-09-11T12:14:56.222Z,38.68
2023-09-11T12:17:19.043Z,39.54
2023-09-11T12:19:43.208Z,38.86
2023-09-11T12:22:07.316Z,38.03
2023-09-11T12:24:30.013Z,37.20
2023-09-11T12:26:53.050Z,38.42
2023-09-11T12:29:16.191Z,39.60
2023-09-11T12:31:39.345Z,39.78
2023-09-11T12:34:02.013Z,39.89
2023-09-11T12:36:26.244Z,39.15
2023-09-11T12:38:50.402Z,39.34
2023-09-11T12:41:13.395Z,38.43
2023-09-11T12:43:38.092Z,39.84
2023-09-11T12:46:02.084Z,39.44
2023-09-11T12:48:26.271Z,39.22
2023-09-11T12:50:49.193Z,37.89
2023-09-11T12:53:11.879Z,37.99
2023-09-11T12:55:34.622Z,37.61
2023-09-11T12:58:01.718Z,39.13
2023-09-11T13:00:35.232Z,37.61
2023-09-11T13:02:59.697Z,38.54
2023-09-11T13:05:24.388Z,38.40
2023-09-11T13:07:47.177Z,38.74
2023-09-11T13:10:10.110Z,39.69
2023-09-11T13:12:35.771Z,40.16
2023-09-11T13:14:58.510Z,40.59
2023-09-11T13:17:21.188Z,38.18
2023-09-11T13:19:43.866Z,38.43
2023-09-11T13:22:06.654Z,38.41
2023-09-11T13:24:29.374Z,38.64
2023-09-11T13:26:52.306Z,38.28
2023-09-11T13:29:15.060Z,37.69
2023-09-11T13:31:38.078Z,38.50
2023-09-11T13:34:01.089Z,39.55
2023-09-11T13:36:24.299Z,39.29
2023-09-11T13:38:47.155Z,39.05
2023-09-11T13:41:10.049Z,39.45
2023-09-11T13:43:32.758Z,39.02
2023-09-11T13:45:55.695Z,38.46
2023-09-11T13:48:19.599Z,39.05
2023-09-11T13:50:42.666Z,37.78
2023-09-11T13:53:05.389Z,37.55
2023-09-11T13:55:28.119Z,38.34
2023-09-11T13:57:50.737Z,38.13
2023-09-11T14:00:13.856Z,38.29
2023-09-11T14:02:36.673Z,38.39
2023-09-11T14:04:59.492Z,38.36
2023-09-11T14:07:22.526Z,38.42
2023-09-11T14:09:45.799Z,38.44
2023-09-11T14:12:08.534Z,37.89
2023-09-11T14:14:33.180Z,37.60
2023-09-11T14:16:55.908Z,38.34
2023-09-11T14:19:18.590Z,38.70
2023-09-11T14:21:41.191Z,38.75
2023-09-11T14:24:05.540Z,39.66
2023-09-11T14:26:28.208Z,39.64
2023-09-11T14:28:52.561Z,39.48
2023-09-11T14:31:15.535Z,39.08
2023-09-11T14:33:38.306Z,38.42
2023-09-11T14:36:02.252Z,38.93
2023-09-11T14:38:25.059Z,38.22
2023-09-11T14:40:48.171Z,38.31
2023-09-11T14:43:10.906Z,38.09
2023-09-11T14:45:33.521Z,38.02
2023-09-11T14:47:56.278Z,36.83
2023-09-11T14:50:19.056Z,36.69
2023-09-11T14:52:41.843Z,37.80
2023-09-11T14:55:04.816Z,37.62
2023-09-11T14:57:27.452Z,38.17
2023-09-11T14:59:50.632Z,38.37
2023-09-11T15:02:13.433Z,38.81
2023-09-11T15:04:49.353Z,38.59
2023-09-11T15:07:13.472Z,38.60
2023-09-11T15:09:36.123Z,38.49
2023-09-11T15:12:40.229Z,39.05
2023-09-11T15:15:03.203Z,39.65
2023-09-11T15:17:26.889Z,39.84
2023-09-11T15:19:49.740Z,39.41
2023-09-11T15:22:12.640Z,39.39
2023-09-11T15:24:35.609Z,38.90
2023-09-11T15:26:58.310Z,39.09
2023-09-11T15:29:21.120Z,39.29
2023-09-11T15:31:49.667Z,39.31
2023-09-11T15:34:22.244Z,39.63
2023-09-11T15:36:44.911Z,40.08
2023-09-11T15:39:08.409Z,40.48
2023-09-11T15:41:31.105Z,40.60
2023-09-11T15:43:53.914Z,41.13
2023-09-11T15:46:31.182Z,41.46
2023-09-11T15:49:00.413Z,41.24
2023-09-11T15:51:23.121Z,41.52
2023-09-11T15:53:46.165Z,41.86
2023-09-11T15:56:13.870Z,41.41
2023-09-11T15:58:36.822Z,41.82
2023-09-11T16:00:59.525Z,41.98
2023-09-11T16:03:22.782Z,41.98
2023-09-11T16:05:45.599Z,42.12
2023-09-11T16:08:09.904Z,42.17
2023-09-11T16:10:32.586Z,42.17
2023-09-11T16:12:55.555Z,42.64
2023-09-11T16:15:19.524Z,42.82
2023-09-11T16:17:43.081Z,43.02
2023-09-11T16:20:06.602Z,43.31
2023-09-11T16:22:29.348Z,43.30
2023-09-11T16:24:51.950Z,43.55
2023-09-11T16:27:15.868Z,43.99
2023-09-11T16:29:38.609Z,43.74
2023-09-11T16:32:01.257Z,43.80
2023-09-11T16:34:24.003Z,44.36
2023-09-11T16:36:46.709Z,44.41
2023-09-11T16:39:09.473Z,44.72
2023-09-11T16:41:32.172Z,44.98
2023-09-11T16:43:54.776Z,45.32
2023-09-11T16:46:18.875Z,45.81
2023-09-11T16:48:42.112Z,46.20
2023-09-11T16:51:05.215Z,46.69
2023-09-11T16:53:27.850Z,46.96
2023-09-11T16:55:50.556Z,48.18
2023-09-11T16:58:14.131Z,48.71
2023-09-11T17:00:36.861Z,49.15
2023-09-11T17:03:00.433Z,49.47
2023-09-11T17:05:23.389Z,49.40
2023-09-11T17:07:46.110Z,50.07
2023-09-11T17:10:09.274Z,50.24
2023-09-11T17:12:32.509Z,50.30
2023-09-11T17:14:55.369Z,50.63
2023-09-11T17:17:17.981Z,51.06
2023-09-11T17:19:40.672Z,51.02
2023-09-11T17:22:03.550Z,51.74
2023-09-11T17:24:27.028Z,52.06
2023-09-11T17:26:49.727Z,52.21
2023-09-11T17:29:12.407Z,51.96
2023-09-11T17:31:35.048Z,52.55
2023-09-11T17:33:57.819Z,52.73
2023-09-11T17:36:20.869Z,52.98
2023-09-11T17:38:43.996Z,53.08
2023-09-11T17:41:07.939Z,53.34
2023-09-11T17:43:30.658Z,54.17
2023-09-11T17:45:53.663Z,54.05
2023-09-11T17:48:17.174Z,54.15
2023-09-11T17:50:40.078Z,54.18
2023-09-11T17:53:02.975Z,54.04
2023-09-11T17:55:26.133Z,53.70
2023-09-11T17:57:48.842Z,54.38
2023-09-11T18:00:12.414Z,54.92
2023-09-11T18:02:36.372Z,54.78
2023-09-11T18:04:59.461Z,54.63
2023-09-11T18:07:22.188Z,54.99
2023-09-11T18:09:45.477Z,55.58
2023-09-11T18:12:08.619Z,56.06
2023-09-11T18:14:31.240Z,56.19
2023-09-11T18:16:53.934Z,56.04
2023-09-11T18:19:16.591Z,56.17
2023-09-11T18:21:41.332Z,56.54
2023-09-11T18:24:04.313Z,56.66
2023-09-11T18:26:27.244Z,56.99
2023-09-11T18:28:49.924Z,56.59
2023-09-11T18:31:12.672Z,57.57
2023-09-11T18:33:35.873Z,57.82
2023-09-11T18:36:02.937Z,57.76
2023-09-11T18:38:27.001Z,57.95
2023-09-11T18:40:49.804Z,58.09
2023-09-11T18:43:12.789Z,57.92
2023-09-11T18:45:36.093Z,58.23
2023-09-11T18:47:58.953Z,58.07
2023-09-11T18:50:21.791Z,58.10
2023-09-11T18:52:44.860Z,57.51
2023-09-11T18:55:08.642Z,58.00
2023-09-11T18:57:31.750Z,58.79
2023-09-11T18:59:56.153Z,58.74
2023-09-11T19:02:19.071Z,58.27
2023-09-11T19:04:42.233Z,58.41
2023-09-11T19:07:04.946Z,58.19
2023-09-11T19:09:27.952Z,58.21
2023-09-11T19:11:50.760Z,58.80
2023-09-11T19:14:13.634Z,58.74
2023-09-11T19:16:36.611Z,58.64
2023-09-11T19:19:00.470Z,59.31
2023-09-11T19:21:23.382Z,59.79
2023-09-11T19:23:46.179Z,58.86
2023-09-11T19:26:10.297Z,58.86
2023-09-11T19:28:33.244Z,58.78
2023-09-11T19:30:55.969Z,58.60
2023-09-11T19:33:18.949Z,57.87
2023-09-11T19:35:42.141Z,58.64
2023-09-11T19:38:04.947Z,57.64
2023-09-11T19:40:27.807Z,58.63
2023-09-11T19:42:50.460Z,59.46
2023-09-11T19:45:13.373Z,59.69
2023-09-11T19:47:36.065Z,59.46
2023-09-11T19:49:59.598Z,59.19
2023-09-11T19:52:22.310Z,58.93
2023-09-11T19:54:45.607Z,59.37
2023-09-11T19:57:08.433Z,59.91
2023-09-11T19:59:31.836Z,59.97
2023-09-11T20:01:54.669Z,60.10
2023-09-11T20:04:19.307Z,60.56
2023-09-11T20:06:42.031Z,60.78
2023-09-11T20:09:04.702Z,61.12
2023-09-11T20:11:28.299Z,61.16
2023-09-11T20:13:50.949Z,61.52
2023-09-11T20:16:14.030Z,61.43
2023-09-11T20:18:36.690Z,61.62
2023-09-11T20:20:59.769Z,61.94
2023-09-11T20:23:22.433Z,61.82
2023-09-11T20:25:45.152Z,62.42
2023-09-11T20:28:08.072Z,62.68
2023-09-11T20:30:30.913Z,62.86
2023-09-11T20:32:53.606Z,63.04
2023-09-11T20:35:16.471Z,63.23
2023-09-11T20:37:39.094Z,63.07
2023-09-11T20:40:02.009Z,63.51
2023-09-11T20:42:25.352Z,63.71
2023-09-11T20:44:48.022Z,63.85
2023-09-11T20:47:10.582Z,64.34
2023-09-11T20:49:33.331Z,64.48
2023-09-11T20:51:55.956Z,64.66
2023-09-11T20:54:19.060Z,64.37
2023-09-11T20:56:42.049Z,64.36
2023-09-11T20:59:04.751Z,64.63
2023-09-11T21:01:27.429Z,64.93
2023-09-11T21:03:51.340Z,65.14
2023-09-11T21:06:16.188Z,65.43
2023-09-11T21:08:41.033Z,65.60
2023-09-11T21:11:03.928Z,65.75
2023-09-11T21:13:27.522Z,66.04
2023-09-11T21:15:50.790Z,66.55
2023-09-11T21:18:13.708Z,66.70
2023-09-11T21:20:36.575Z,67.12
2023-09-11T21:22:59.608Z,67.21
2023-09-11T21:25:22.312Z,67.22
2023-09-11T21:27:45.061Z,66.99
2023-09-11T21:30:08.418Z,66.79
2023-09-11T21:32:32.288Z,67.20
2023-09-11T21:34:55.475Z,67.51
2023-09-11T21:37:18.097Z,67.68
2023-09-11T21:39:41.038Z,67.77
2023-09-11T21:42:04.022Z,67.61
2023-09-11T21:44:26.707Z,67.60
2023-09-11T21:46:49.462Z,67.67
2023-09-11T21:49:12.115Z,68.14
2023-09-11T21:51:34.914Z,68.20
2023-09-11T21:54:11.708Z,68.35
2023-09-11T21:56:36.742Z,68.69
2023-09-11T21:58:59.325Z,68.89
2023-09-11T22:01:22.053Z,68.79
2023-09-11T22:03:45.133Z,68.81
2023-09-11T22:06:08.135Z,68.71
2023-09-11T22:08:30.938Z,68.74
2023-09-11T22:10:54.524Z,69.17
2023-09-11T22:13:17.089Z,69.13
2023-09-11T22:15:39.883Z,69.25
2023-09-11T22:18:03.014Z,69.51
2023-09-11T22:20:26.277Z,69.58
2023-09-11T22:22:48.801Z,69.87
2023-09-11T22:25:11.521Z,70.12
2023-09-11T22:27:34.231Z,69.72
2023-09-11T22:29:56.872Z,69.89
2023-09-11T22:32:19.518Z,69.99
2023-09-11T22:34:42.428Z,69.97
2023-09-11T22:37:05.155Z,69.96
2023-09-11T22:39:27.762Z,70.04
2023-09-11T22:41:50.424Z,70.50
2023-09-11T22:44:13.328Z,70.92
2023-09-11T22:46:35.934Z,71.47
2023-09-11T22:48:58.681Z,71.29
2023-09-11T22:51:21.336Z,71.09
2023-09-11T22:53:43.998Z,70.66
2023-09-11T22:56:06.597Z,70.65
2023-09-11T22:58:29.776Z,71.33
2023-09-11T23:00:52.373Z,71.73
2023-09-11T23:03:15.376Z,71.43
2023-09-11T23:05:38.889Z,71.01
2023-09-11T23:08:01.575Z,71.28
2023-09-11T23:10:24.372Z,71.43
2023-09-11T23:12:46.967Z,70.82
2023-09-11T23:15:09.744Z,70.44
2023-09-11T23:17:32.494Z,70.33
2023-09-11T23:19:56.740Z,70.18
2023-09-11T23:22:19.493Z,70.24
2023-09-11T23:24:42.246Z,70.18
2023-09-11T23:27:05.197Z,70.55
2023-09-11T23:29:27.899Z,70.85
2023-09-11T23:31:50.537Z,71.08
2023-09-11T23:34:13.184Z,71.39
2023-09-11T23:36:39.365Z,71.40
2023-09-11T23:39:02.663Z,71.44
2023-09-11T23:41:27.493Z,71.69
2023-09-11T23:43:50.124Z,71.95
2023-09-11T23:46:14.607Z,72.26
2023-09-11T23:48:37.519Z,72.44
2023-09-11T23:51:00.259Z,72.42
2023-09-11T23:53:22.927Z,72.68
2023-09-11T23:55:45.532Z,72.61
2023-09-11T23:58:08.124Z,72.40
